Ralph, Michigan
Current Conditions -  °F | °C
As of 4:52 PM on Friday 28 Nov 2014 (Local Time) from KSAW Reporting Station
Overcast Overcast  
Wind Chill:   Ceiling: 3900
Heat Index: 16°   Visibility: 10mi
Dew Point: 12°   Wind: 6mph
Humidity: 86%   Direction: 180°S
Pressure: 29.96"   Gusts: NA
Location:  46.11°N, 87.78°W
Report Text: KSAW 282252Z 18005KT 10SM OVC039 M09/M11 A2996
Loading
Personal Weather Stations






























Interactive Weather Map New forecast layout! Learn more

10-Day Weather Forecast

Advertisements
Track Severe Weather on mobile